Time;durP1;ratioP1;P1;durP2;ratioP2;P2;SDS_P1;SDS_P2;PMS_P1;PMS_P2;Temp;Humidity;BMP_temperature;BMP_pressure;BME280_temperature;BME280_humidity;BME280_pressure;Samples;Min_cycle;Max_cycle;Signal;HPM_P1;HPM_P2
2022/07/21 00:02:03;;;;;;;10.65;9.57;;;;;;;;;;4982903;28;93290;-72
2022/07/21 00:04:29;;;;;;;10.60;9.60;;;;;;;;;;4982398;28;96654;-71
2022/07/21 00:06:56;;;;;;;12.50;10.63;;;;;;;;;;4986053;28;97275;-72
2022/07/21 00:09:22;;;;;;;10.50;9.55;;;;;;;;;;4981719;28;94293;-71
2022/07/21 00:11:49;;;;;;;11.98;10.77;;;;;;;;;;4981172;28;93873;-72
2022/07/21 00:14:15;;;;;;;17.27;11.65;;;;;;;;;;4988215;28;94229;-72
2022/07/21 00:16:42;;;;;;;14.35;12.95;;;;;;;;;;4982463;28;94500;-71
2022/07/21 00:19:08;;;;;;;17.30;13.40;;;;;;;;;;4985655;28;93070;-72
2022/07/21 00:21:35;;;;;;;14.93;13.40;;;;;;;;;;4989753;28;93610;-72
2022/07/21 00:24:01;;;;;;;14.02;12.27;;;;;;;;;;4983736;28;93719;-71
2022/07/21 00:26:28;;;;;;;13.05;11.75;;;;;;;;;;4986803;28;93564;-72
2022/07/21 00:28:54;;;;;;;12.55;11.55;;;;;;;;;;4980308;28;95807;-71
2022/07/21 00:31:22;;;;;;;12.85;11.55;;;;;;;;;;4984226;28;94254;-72
2022/07/21 00:33:51;;;;;;;13.27;12.00;;;;;;;;;;4984406;28;94243;-72
2022/07/21 00:36:18;;;;;;;13.90;12.63;;;;;;;;;;4986267;28;93339;-72
2022/07/21 00:38:44;;;;;;;14.93;12.88;;;;;;;;;;4985417;28;95077;-71
2022/07/21 00:41:11;;;;;;;14.57;11.52;;;;;;;;;;4983069;28;93486;-72
2022/07/21 00:43:38;;;;;;;13.45;12.10;;;;;;;;;;4978057;28;94136;-72
2022/07/21 00:46:04;;;;;;;13.23;12.02;;;;;;;;;;4983080;28;93136;-72
2022/07/21 00:48:31;;;;;;;12.90;11.68;;;;;;;;;;4980098;28;94253;-72
2022/07/21 00:50:58;;;;;;;13.85;12.57;;;;;;;;;;4985011;28;93888;-71
2022/07/21 00:53:25;;;;;;;12.85;11.20;;;;;;;;;;4985826;28;96731;-71
2022/07/21 00:55:51;;;;;;;13.32;11.95;;;;;;;;;;4982017;28;94784;-72
2022/07/21 00:58:17;;;;;;;11.77;10.68;;;;;;;;;;4982338;27;94384;-71
2022/07/21 01:00:44;;;;;;;11.20;10.30;;;;;;;;;;4985744;27;93216;-72
2022/07/21 01:03:10;;;;;;;11.95;10.85;;;;;;;;;;4982492;28;94179;-72
2022/07/21 01:05:37;;;;;;;9.82;9.07;;;;;;;;;;4981243;28;95170;-72
2022/07/21 01:08:04;;;;;;;10.70;9.70;;;;;;;;;;4986353;28;93735;-72
2022/07/21 01:10:31;;;;;;;10.57;9.52;;;;;;;;;;4985361;28;91806;-72
2022/07/21 01:12:58;;;;;;;11.38;9.13;;;;;;;;;;4981267;28;93713;-72
2022/07/21 01:15:25;;;;;;;10.25;9.38;;;;;;;;;;4987731;28;94278;-72
2022/07/21 01:17:51;;;;;;;10.32;9.52;;;;;;;;;;4984981;28;96423;-72
2022/07/21 01:20:20;;;;;;;9.50;8.70;;;;;;;;;;4983099;28;93345;-72
2022/07/21 01:22:48;;;;;;;11.45;10.48;;;;;;;;;;4983663;28;94137;-72
2022/07/21 01:25:15;;;;;;;9.35;8.63;;;;;;;;;;4983917;28;94597;-72
2022/07/21 01:27:41;;;;;;;9.80;8.82;;;;;;;;;;4981734;28;94302;-71
2022/07/21 01:30:09;;;;;;;9.50;8.73;;;;;;;;;;4981538;28;94448;-72
2022/07/21 01:32:37;;;;;;;9.77;8.88;;;;;;;;;;4984665;28;93989;-72
2022/07/21 01:35:05;;;;;;;9.98;8.70;;;;;;;;;;4980828;28;93032;-72
2022/07/21 01:37:31;;;;;;;10.43;9.32;;;;;;;;;;4979927;28;92621;-72
2022/07/21 01:42:45;;;;;;;9.48;8.48;;;;;;;;;;4976134;28;97362;-72
2022/07/21 01:45:11;;;;;;;10.05;9.35;;;;;;;;;;4986898;28;94312;-72
2022/07/21 01:47:40;;;;;;;9.95;8.95;;;;;;;;;;4987191;28;93448;-72
2022/07/21 01:50:06;;;;;;;9.68;8.90;;;;;;;;;;4982069;28;92741;-72
2022/07/21 01:52:33;;;;;;;9.65;8.88;;;;;;;;;;4981013;28;94275;-71
2022/07/21 01:54:59;;;;;;;10.27;9.23;;;;;;;;;;4979800;28;93410;-72
2022/07/21 01:57:25;;;;;;;9.98;9.15;;;;;;;;;;4987218;28;92570;-72
2022/07/21 01:59:52;;;;;;;9.98;9.05;;;;;;;;;;4983151;28;91833;-72
2022/07/21 02:02:20;;;;;;;10.90;9.68;;;;;;;;;;4988598;28;93506;-72
2022/07/21 02:04:47;;;;;;;9.57;8.77;;;;;;;;;;4985851;28;94142;-72
2022/07/21 02:07:14;;;;;;;10.32;8.90;;;;;;;;;;4984534;28;96876;-72
2022/07/21 02:09:41;;;;;;;9.60;8.70;;;;;;;;;;4982887;28;93326;-71
2022/07/21 02:12:07;;;;;;;10.50;9.50;;;;;;;;;;4985896;28;93425;-72
2022/07/21 02:14:34;;;;;;;9.73;8.88;;;;;;;;;;4987626;28;94586;-72
2022/07/21 02:17:00;;;;;;;9.55;8.65;;;;;;;;;;4983092;28;93004;-72
2022/07/21 02:19:27;;;;;;;9.90;9.00;;;;;;;;;;4984721;28;93600;-73
2022/07/21 02:21:53;;;;;;;10.00;8.73;;;;;;;;;;4980159;28;94171;-72
2022/07/21 02:24:20;;;;;;;10.50;9.55;;;;;;;;;;4985116;28;93518;-72
2022/07/21 02:26:47;;;;;;;9.68;8.88;;;;;;;;;;4979719;28;93417;-72
2022/07/21 02:29:13;;;;;;;10.93;9.23;;;;;;;;;;4996570;28;93292;-72
2022/07/21 02:31:40;;;;;;;9.90;8.95;;;;;;;;;;4983250;28;96244;-73
2022/07/21 02:34:06;;;;;;;10.15;9.18;;;;;;;;;;4980945;28;94261;-72
2022/07/21 02:36:33;;;;;;;10.43;9.32;;;;;;;;;;4983364;28;92644;-72
2022/07/21 02:39:00;;;;;;;10.82;9.85;;;;;;;;;;4985803;28;93575;-72
2022/07/21 02:41:26;;;;;;;10.80;9.82;;;;;;;;;;4987027;28;93894;-72
2022/07/21 02:43:53;;;;;;;10.98;9.77;;;;;;;;;;4987977;28;94016;-72
2022/07/21 02:46:19;;;;;;;9.68;8.65;;;;;;;;;;4991467;28;93886;-72
2022/07/21 02:48:45;;;;;;;11.35;10.27;;;;;;;;;;4985902;28;92966;-72
2022/07/21 02:51:12;;;;;;;10.20;9.27;;;;;;;;;;4983160;28;92815;-73
2022/07/21 02:53:38;;;;;;;11.02;9.93;;;;;;;;;;4982140;28;93660;-72
2022/07/21 02:56:07;;;;;;;11.35;10.45;;;;;;;;;;4983576;28;95350;-72
2022/07/21 02:58:33;;;;;;;13.75;10.80;;;;;;;;;;4985830;28;95375;-72
2022/07/21 03:01:01;;;;;;;11.82;10.73;;;;;;;;;;4991484;28;94476;-72
2022/07/21 03:03:31;;;;;;;13.48;11.93;;;;;;;;;;4983618;28;94345;-73
2022/07/21 03:05:58;;;;;;;13.88;11.13;;;;;;;;;;4986464;28;93960;-72
2022/07/21 03:08:25;;;;;;;13.18;11.88;;;;;;;;;;4981338;28;93344;-72
2022/07/21 03:10:52;;;;;;;14.02;12.63;;;;;;;;;;4984794;28;94161;-72
2022/07/21 03:13:18;;;;;;;15.60;12.95;;;;;;;;;;4983338;28;93655;-72
2022/07/21 03:15:44;;;;;;;14.15;12.93;;;;;;;;;;4987475;28;94731;-72
2022/07/21 03:18:11;;;;;;;14.88;13.57;;;;;;;;;;4987949;28;93887;-72
2022/07/21 03:20:39;;;;;;;15.15;13.75;;;;;;;;;;4981864;28;95881;-72
2022/07/21 03:23:06;;;;;;;16.40;14.88;;;;;;;;;;4984353;28;92548;-72
2022/07/21 03:25:32;;;;;;;16.70;15.13;;;;;;;;;;4982242;28;94957;-72
2022/07/21 03:27:59;;;;;;;17.67;14.98;;;;;;;;;;4988147;28;93651;-72
2022/07/21 03:30:26;;;;;;;17.33;15.60;;;;;;;;;;4984092;28;94851;-73
2022/07/21 03:32:52;;;;;;;17.75;16.00;;;;;;;;;;4984024;28;93037;-72
2022/07/21 03:35:19;;;;;;;17.77;16.27;;;;;;;;;;4985741;28;95109;-72
2022/07/21 03:37:48;;;;;;;19.65;17.63;;;;;;;;;;4980971;28;93333;-72
2022/07/21 03:40:15;;;;;;;22.98;18.48;;;;;;;;;;4985313;28;93922;-72
2022/07/21 03:42:42;;;;;;;20.85;18.75;;;;;;;;;;4982262;28;94855;-72
2022/07/21 03:45:09;;;;;;;20.52;18.42;;;;;;;;;;4988121;28;94920;-72
2022/07/21 03:47:35;;;;;;;22.02;19.58;;;;;;;;;;4983914;28;94320;-72
2022/07/21 03:50:02;;;;;;;24.42;19.48;;;;;;;;;;4985085;28;93782;-72
2022/07/21 03:52:29;;;;;;;20.85;17.73;;;;;;;;;;4981048;28;94829;-72
2022/07/21 03:55:07;;;;;;;22.30;20.02;;;;;;;;;;4983455;28;94074;-72
2022/07/21 03:57:48;;;;;;;22.83;18.48;;;;;;;;;;4978608;28;94076;-72
2022/07/21 04:00:16;;;;;;;21.52;19.33;;;;;;;;;;4982679;28;93979;-72
2022/07/21 04:02:44;;;;;;;20.98;18.85;;;;;;;;;;4986484;28;91937;-72
2022/07/21 04:05:11;;;;;;;21.98;19.85;;;;;;;;;;4986328;28;92618;-72
2022/07/21 04:07:41;;;;;;;22.42;20.13;;;;;;;;;;4980564;28;93851;-72
2022/07/21 04:10:10;;;;;;;21.67;19.42;;;;;;;;;;4978886;28;95790;-72
2022/07/21 04:12:37;;;;;;;21.50;19.33;;;;;;;;;;4989656;28;96479;-72
2022/07/21 04:15:05;;;;;;;25.20;21.35;;;;;;;;;;4976127;28;93945;-73
2022/07/21 04:17:31;;;;;;;23.52;21.08;;;;;;;;;;4980178;28;92896;-72
2022/07/21 04:19:58;;;;;;;26.48;20.67;;;;;;;;;;4981918;28;94834;-72
2022/07/21 04:22:24;;;;;;;21.65;19.55;;;;;;;;;;4989111;28;94123;-72
2022/07/21 04:24:51;;;;;;;22.90;19.92;;;;;;;;;;4983440;28;94442;-72
2022/07/21 04:27:17;;;;;;;26.08;21.38;;;;;;;;;;4983961;28;93628;-72
2022/07/21 04:29:43;;;;;;;22.17;20.13;;;;;;;;;;4979335;28;94337;-71
2022/07/21 04:32:10;;;;;;;34.55;21.00;;;;;;;;;;4983277;28;94434;-71
2022/07/21 04:34:36;;;;;;;23.10;20.73;;;;;;;;;;4990046;28;96980;-72
2022/07/21 04:37:03;;;;;;;22.55;20.35;;;;;;;;;;4984536;28;95550;-72
2022/07/21 04:39:29;;;;;;;25.27;20.38;;;;;;;;;;4979181;28;94665;-73
2022/07/21 04:41:55;;;;;;;13.93;12.27;;;;;;;;;;4980078;28;94528;-73
2022/07/21 04:44:22;;;;;;;20.42;14.93;;;;;;;;;;4979151;28;94590;-73
2022/07/21 04:46:48;;;;;;;14.48;13.00;;;;;;;;;;4981126;28;94006;-73
2022/07/21 04:49:15;;;;;;;17.90;15.90;;;;;;;;;;4984211;28;93168;-74
2022/07/21 04:51:41;;;;;;;16.52;14.93;;;;;;;;;;4988337;28;93337;-73
2022/07/21 04:54:08;;;;;;;16.48;14.82;;;;;;;;;;4988754;28;94117;-74
2022/07/21 04:56:34;;;;;;;18.88;16.88;;;;;;;;;;4987096;28;94846;-73
2022/07/21 04:59:01;;;;;;;17.73;15.80;;;;;;;;;;4986816;28;94958;-74
2022/07/21 05:01:28;;;;;;;22.63;18.23;;;;;;;;;;4994482;28;93273;-74
2022/07/21 05:03:54;;;;;;;20.08;17.73;;;;;;;;;;4990065;28;94030;-73
2022/07/21 05:06:21;;;;;;;22.88;17.20;;;;;;;;;;4982192;28;93204;-74
2022/07/21 05:08:52;;;;;;;20.80;18.35;;;;;;;;;;4988935;28;93077;-73
2022/07/21 05:11:19;;;;;;;19.23;17.40;;;;;;;;;;4982623;28;92561;-73
2022/07/21 05:13:45;;;;;;;21.33;18.10;;;;;;;;;;4981224;28;94251;-73
2022/07/21 05:16:12;;;;;;;21.80;18.45;;;;;;;;;;4987696;28;91796;-73
2022/07/21 05:18:38;;;;;;;22.30;20.00;;;;;;;;;;4983025;28;94868;-73
2022/07/21 05:21:05;;;;;;;21.52;19.27;;;;;;;;;;4983695;28;93948;-73
2022/07/21 05:23:31;;;;;;;20.25;18.30;;;;;;;;;;4982006;28;95375;-74
2022/07/21 05:25:57;;;;;;;22.02;19.92;;;;;;;;;;4978988;28;94404;-74
2022/07/21 05:28:28;;;;;;;21.70;19.35;;;;;;;;;;4985109;28;93072;-73
2022/07/21 05:30:54;;;;;;;41.08;21.25;;;;;;;;;;4978752;28;94354;-74
2022/07/21 05:33:21;;;;;;;24.58;22.05;;;;;;;;;;4981634;28;93845;-74
2022/07/21 05:35:47;;;;;;;25.17;22.25;;;;;;;;;;4984730;28;94475;-74
2022/07/21 05:38:14;;;;;;;24.95;21.00;;;;;;;;;;4984634;28;94167;-73
2022/07/21 05:40:40;;;;;;;26.08;23.45;;;;;;;;;;4982162;28;92143;-73
2022/07/21 05:43:06;;;;;;;25.65;23.10;;;;;;;;;;4984125;28;94228;-74
2022/07/21 05:45:33;;;;;;;30.83;24.25;;;;;;;;;;4979025;28;94947;-74
2022/07/21 05:47:59;;;;;;;24.33;21.73;;;;;;;;;;4981354;28;95800;-73
2022/07/21 05:50:25;;;;;;;23.80;21.25;;;;;;;;;;4983913;28;95587;-73
2022/07/21 05:52:52;;;;;;;25.83;21.98;;;;;;;;;;4979402;28;94115;-74
2022/07/21 05:55:18;;;;;;;26.33;23.58;;;;;;;;;;4977650;28;94626;-74
2022/07/21 05:57:47;;;;;;;28.30;24.17;;;;;;;;;;4981841;28;92544;-73
2022/07/21 06:00:15;;;;;;;25.00;22.13;;;;;;;;;;4979839;28;93254;-74
2022/07/21 06:02:43;;;;;;;27.95;23.50;;;;;;;;;;4980149;28;94037;-74
2022/07/21 06:05:10;;;;;;;26.00;23.23;;;;;;;;;;4979692;28;93039;-74
2022/07/21 06:07:38;;;;;;;24.02;21.55;;;;;;;;;;4978769;28;95199;-74
2022/07/21 06:10:04;;;;;;;25.30;20.95;;;;;;;;;;4973785;28;94117;-74
2022/07/21 06:12:35;;;;;;;24.15;21.60;;;;;;;;;;4972178;28;97449;-74
2022/07/21 06:15:03;;;;;;;27.00;23.65;;;;;;;;;;4975575;28;93902;-73
2022/07/21 06:17:31;;;;;;;29.35;22.02;;;;;;;;;;4972987;28;92479;-73
2022/07/21 06:20:00;;;;;;;26.02;22.77;;;;;;;;;;4985898;28;93440;-74
2022/07/21 06:22:27;;;;;;;25.17;20.63;;;;;;;;;;4990964;28;92630;-74
2022/07/21 06:24:53;;;;;;;29.10;21.88;;;;;;;;;;4982906;28;95282;-74
2022/07/21 06:27:19;;;;;;;22.27;19.75;;;;;;;;;;4986661;28;92666;-74
2022/07/21 06:29:46;;;;;;;26.08;20.10;;;;;;;;;;4989796;28;93726;-74
2022/07/21 06:32:12;;;;;;;21.55;19.25;;;;;;;;;;4978574;28;93453;-73
2022/07/21 06:34:44;;;;;;;22.25;19.05;;;;;;;;;;4984388;28;93423;-74
2022/07/21 06:37:10;;;;;;;24.80;19.13;;;;;;;;;;4990939;28;94859;-74
2022/07/21 06:39:41;;;;;;;19.95;17.85;;;;;;;;;;4984422;28;94159;-73
2022/07/21 06:42:08;;;;;;;19.17;17.17;;;;;;;;;;4991815;28;92553;-73
2022/07/21 06:44:35;;;;;;;19.98;17.83;;;;;;;;;;4990349;28;93771;-74
2022/07/21 06:47:04;;;;;;;21.92;17.92;;;;;;;;;;4992051;28;92567;-74
2022/07/21 06:49:31;;;;;;;23.50;17.40;;;;;;;;;;4983411;28;94659;-75
2022/07/21 06:51:57;;;;;;;20.55;15.68;;;;;;;;;;4979416;28;94965;-74
2022/07/21 06:54:24;;;;;;;24.25;17.92;;;;;;;;;;4979719;28;92306;-74
2022/07/21 06:56:51;;;;;;;22.52;17.50;;;;;;;;;;4973390;28;94150;-74
2022/07/21 06:59:18;;;;;;;19.98;17.33;;;;;;;;;;4974770;27;93973;-74
2022/07/21 07:01:44;;;;;;;21.88;17.27;;;;;;;;;;4975211;28;96518;-74
2022/07/21 07:04:11;;;;;;;25.60;18.63;;;;;;;;;;4977184;28;96901;-74
2022/07/21 07:06:39;;;;;;;21.70;18.20;;;;;;;;;;4974974;28;92964;-74
2022/07/21 07:09:05;;;;;;;30.35;20.08;;;;;;;;;;4978564;28;92915;-73
2022/07/21 07:11:34;;;;;;;24.83;18.10;;;;;;;;;;4977941;28;93827;-74
2022/07/21 07:14:00;;;;;;;24.85;19.95;;;;;;;;;;4974578;28;94189;-75
2022/07/21 07:16:43;;;;;;;29.40;20.50;;;;;;;;;;4971941;28;93332;-75
2022/07/21 07:19:11;;;;;;;25.33;20.38;;;;;;;;;;4971493;28;93890;-75
2022/07/21 07:21:38;;;;;;;27.55;20.30;;;;;;;;;;4978619;28;93219;-74
2022/07/21 07:24:04;;;;;;;31.30;22.05;;;;;;;;;;4975321;28;93476;-74
2022/07/21 07:26:31;;;;;;;33.83;22.58;;;;;;;;;;4980991;28;96517;-75
2022/07/21 07:28:57;;;;;;;35.10;23.25;;;;;;;;;;4995306;28;95488;-75
2022/07/21 07:31:23;;;;;;;33.60;24.33;;;;;;;;;;4982982;28;95213;-75
2022/07/21 07:33:50;;;;;;;35.97;23.70;;;;;;;;;;4980918;28;93300;-75
2022/07/21 07:36:17;;;;;;;33.60;24.02;;;;;;;;;;4981132;28;94175;-76
2022/07/21 07:38:43;;;;;;;35.63;25.33;;;;;;;;;;4980667;28;97333;-76
2022/07/21 07:41:10;;;;;;;41.55;24.15;;;;;;;;;;4981489;28;92913;-75
2022/07/21 07:43:37;;;;;;;35.28;24.38;;;;;;;;;;4981937;28;92851;-75
2022/07/21 07:46:04;;;;;;;29.33;24.20;;;;;;;;;;4987266;28;94528;-75
2022/07/21 07:48:31;;;;;;;38.83;25.95;;;;;;;;;;4993382;28;92590;-75
2022/07/21 07:50:58;;;;;;;38.20;25.35;;;;;;;;;;4978779;28;96947;-73
2022/07/21 07:53:24;;;;;;;41.13;25.90;;;;;;;;;;4989516;28;93580;-73
2022/07/21 07:55:50;;;;;;;44.38;26.77;;;;;;;;;;4978775;28;93029;-74
2022/07/21 07:58:17;;;;;;;35.60;26.50;;;;;;;;;;4979385;28;93866;-74
2022/07/21 08:00:43;;;;;;;35.28;25.80;;;;;;;;;;4984783;28;93286;-74
2022/07/21 08:03:21;;;;;;;39.05;28.90;;;;;;;;;;4981944;28;93920;-72
2022/07/21 08:05:48;;;;;;;42.42;27.77;;;;;;;;;;4986830;28;94258;-74
2022/07/21 08:08:14;;;;;;;41.05;27.10;;;;;;;;;;4984884;28;93523;-73
2022/07/21 08:10:41;;;;;;;36.65;26.27;;;;;;;;;;4985001;27;93478;-74
2022/07/21 08:13:11;;;;;;;41.20;27.42;;;;;;;;;;4986643;28;94153;-74
2022/07/21 08:15:37;;;;;;;32.85;25.92;;;;;;;;;;4995954;28;94937;-75
2022/07/21 08:18:04;;;;;;;41.78;29.15;;;;;;;;;;4984683;28;94531;-73
2022/07/21 08:20:30;;;;;;;57.05;30.92;;;;;;;;;;4980953;27;93022;-72
2022/07/21 08:22:57;;;;;;;49.30;31.40;;;;;;;;;;4981182;28;94000;-72
2022/07/21 08:25:23;;;;;;;43.95;28.65;;;;;;;;;;4983568;28;94029;-72
2022/07/21 08:27:49;;;;;;;52.22;31.02;;;;;;;;;;4981742;28;93234;-73
2022/07/21 08:30:16;;;;;;;43.28;29.88;;;;;;;;;;4983176;28;93519;-73
2022/07/21 08:32:42;;;;;;;51.60;31.83;;;;;;;;;;4986488;28;94512;-73
2022/07/21 08:35:09;;;;;;;52.53;32.53;;;;;;;;;;4978067;28;93335;-72
2022/07/21 08:37:35;;;;;;;57.88;33.72;;;;;;;;;;4988024;28;93189;-72
2022/07/21 08:40:03;;;;;;;56.80;35.67;;;;;;;;;;4977163;28;97166;-72
2022/07/21 08:42:29;;;;;;;54.03;35.05;;;;;;;;;;4988111;28;95302;-72
2022/07/21 08:44:56;;;;;;;57.92;35.90;;;;;;;;;;4983203;28;94717;-72
2022/07/21 08:47:24;;;;;;;51.03;33.42;;;;;;;;;;4986524;28;93976;-72
2022/07/21 08:49:50;;;;;;;53.35;34.97;;;;;;;;;;4992758;28;94222;-72
2022/07/21 08:52:18;;;;;;;57.85;37.30;;;;;;;;;;4992136;28;93487;-72
2022/07/21 08:54:44;;;;;;;58.83;35.08;;;;;;;;;;4985151;28;94267;-72
2022/07/21 08:57:11;;;;;;;54.38;34.63;;;;;;;;;;4984456;28;93433;-72
2022/07/21 08:59:38;;;;;;;55.47;33.38;;;;;;;;;;4982336;28;93868;-73
2022/07/21 09:02:05;;;;;;;56.05;33.70;;;;;;;;;;4990266;28;93476;-72
2022/07/21 09:04:32;;;;;;;56.13;34.97;;;;;;;;;;4983321;28;95815;-72
2022/07/21 09:07:05;;;;;;;55.58;35.35;;;;;;;;;;4984314;27;92628;-72
2022/07/21 09:09:33;;;;;;;51.72;34.88;;;;;;;;;;4988620;28;93443;-72
2022/07/21 09:12:00;;;;;;;52.95;33.60;;;;;;;;;;4988765;28;93736;-72
2022/07/21 09:14:29;;;;;;;49.28;33.53;;;;;;;;;;4987388;28;92484;-72
2022/07/21 09:16:57;;;;;;;59.10;36.15;;;;;;;;;;4984840;28;93614;-72
2022/07/21 09:19:38;;;;;;;53.72;34.13;;;;;;;;;;4986800;28;92482;-72
2022/07/21 09:22:06;;;;;;;45.90;30.85;;;;;;;;;;4977715;28;93129;-73
2022/07/21 09:24:37;;;;;;;28.02;19.55;;;;;;;;;;4990856;28;93461;-73
2022/07/21 09:27:06;;;;;;;32.63;21.02;;;;;;;;;;4986311;28;92443;-73
2022/07/21 09:29:46;;;;;;;20.05;16.23;;;;;;;;;;4984635;28;95108;-73
2022/07/21 09:32:20;;;;;;;24.52;15.60;;;;;;;;;;4988233;28;93324;-73
2022/07/21 09:34:48;;;;;;;13.90;10.85;;;;;;;;;;4985060;28;92506;-72
2022/07/21 09:37:14;;;;;;;8.65;7.18;;;;;;;;;;4991489;28;93535;-72
2022/07/21 09:39:40;;;;;;;7.82;6.05;;;;;;;;;;4992674;28;92432;-72
2022/07/21 09:42:14;;;;;;;6.20;5.57;;;;;;;;;;4987720;28;92972;-72
2022/07/21 09:44:41;;;;;;;6.93;6.32;;;;;;;;;;4980204;28;93266;-72
2022/07/21 09:47:12;;;;;;;6.32;5.72;;;;;;;;;;4991068;28;91786;-72
2022/07/21 09:49:39;;;;;;;8.43;6.75;;;;;;;;;;4984113;28;92472;-74
2022/07/21 09:52:30;;;;;;;21.63;17.73;;;;;;;;;;4988760;28;93728;-73
2022/07/21 09:54:58;;;;;;;16.23;12.57;;;;;;;;;;4992106;28;95202;-73
2022/07/21 09:57:25;;;;;;;8.52;7.68;;;;;;;;;;4985677;28;96754;-72
2022/07/21 10:00:05;;;;;;;10.48;6.93;;;;;;;;;;4988137;28;93357;-72
2022/07/21 10:02:42;;;;;;;7.13;5.95;;;;;;;;;;4985421;28;93165;-73
2022/07/21 10:05:10;;;;;;;5.88;5.43;;;;;;;;;;4983431;28;93379;-73
2022/07/21 10:07:39;;;;;;;6.32;4.97;;;;;;;;;;4991452;28;93343;-73
2022/07/21 10:10:07;;;;;;;4.90;4.55;;;;;;;;;;4987612;28;92458;-72
2022/07/21 10:12:34;;;;;;;15.75;5.18;;;;;;;;;;4981154;28;92669;-73
2022/07/21 10:15:00;;;;;;;4.85;4.45;;;;;;;;;;4994031;28;92499;-72
2022/07/21 10:17:27;;;;;;;4.43;3.97;;;;;;;;;;4982420;28;93188;-72
2022/07/21 10:20:09;;;;;;;6.40;3.90;;;;;;;;;;4986559;28;97279;-73
2022/07/21 10:22:36;;;;;;;;;;;;;;;;;;4988056;28;93297;-72
2022/07/21 10:25:03;;;;;;;4.68;4.38;;;;;;;;;;4988112;28;122256;-72
2022/07/21 10:27:29;;;;;;;5.47;4.90;;;;;;;;;;4985498;28;92592;-72
2022/07/21 10:30:35;;;;;;;3.92;3.72;;;;;;;;;;4984248;28;93345;-72
2022/07/21 10:33:02;;;;;;;5.50;4.80;;;;;;;;;;4982318;28;93720;-71
2022/07/21 10:35:29;;;;;;;4.10;3.70;;;;;;;;;;4980601;28;94230;-72
2022/07/21 10:37:55;;;;;;;6.07;4.82;;;;;;;;;;4984280;28;93128;-72
2022/07/21 10:40:24;;;;;;;5.15;4.53;;;;;;;;;;4979348;28;95565;-73
2022/07/21 10:43:00;;;;;;;5.50;5.05;;;;;;;;;;4990620;28;92822;-72
2022/07/21 10:45:33;;;;;;;8.20;6.28;;;;;;;;;;4987848;28;95058;-72
2022/07/21 10:48:00;;;;;;;5.00;4.60;;;;;;;;;;4988018;28;92513;-72
2022/07/21 10:50:30;;;;;;;5.47;4.97;;;;;;;;;;4985382;28;93405;-71
2022/07/21 10:52:58;;;;;;;6.03;5.55;;;;;;;;;;4984253;28;93489;-72
2022/07/21 10:55:26;;;;;;;6.75;6.00;;;;;;;;;;4980668;28;94024;-72
2022/07/21 10:58:13;;;;;;;5.65;5.15;;;;;;;;;;4980205;28;94214;-72
2022/07/21 11:00:45;;;;;;;7.60;6.25;;;;;;;;;;4980721;28;95242;-72
2022/07/21 11:03:30;;;;;;;6.90;6.05;;;;;;;;;;4983281;28;93619;-73
2022/07/21 11:06:05;;;;;;;7.15;6.45;;;;;;;;;;4984374;28;94611;-72
2022/07/21 11:08:34;;;;;;;6.40;5.68;;;;;;;;;;4985732;28;93198;-72
2022/07/21 11:11:12;;;;;;;8.25;6.28;;;;;;;;;;4984145;28;95273;-72
2022/07/21 11:14:00;;;;;;;6.53;5.90;;;;;;;;;;4981428;28;94029;-72
2022/07/21 11:16:42;;;;;;;12.52;6.57;;;;;;;;;;4979836;28;92844;-72
2022/07/21 11:19:27;;;;;;;7.77;6.37;;;;;;;;;;4988697;28;92490;-72
2022/07/21 11:21:53;;;;;;;7.22;6.63;;;;;;;;;;4981581;28;93369;-72
2022/07/21 11:24:21;;;;;;;11.85;6.78;;;;;;;;;;4983007;28;93656;-72
2022/07/21 11:26:57;;;;;;;7.05;6.35;;;;;;;;;;4982023;28;94392;-72
2022/07/21 11:29:23;;;;;;;9.13;6.57;;;;;;;;;;4987105;28;93524;-72
2022/07/21 11:31:50;;;;;;;11.45;7.03;;;;;;;;;;4977514;28;94115;-72
2022/07/21 11:34:17;;;;;;;5.63;5.20;;;;;;;;;;4981379;28;94049;-72
2022/07/21 11:36:44;;;;;;;7.53;6.38;;;;;;;;;;4978237;28;94946;-72
2022/07/21 11:39:12;;;;;;;7.22;5.90;;;;;;;;;;4987025;27;95540;-72
2022/07/21 11:41:40;;;;;;;6.07;5.57;;;;;;;;;;4981148;28;93946;-72
2022/07/21 11:44:07;;;;;;;6.03;5.50;;;;;;;;;;4986653;28;94397;-72
2022/07/21 11:46:52;;;;;;;5.80;5.13;;;;;;;;;;4988088;28;93772;-72
2022/07/21 11:49:19;;;;;;;6.38;5.68;;;;;;;;;;4978729;28;94828;-72
2022/07/21 11:51:54;;;;;;;6.50;5.68;;;;;;;;;;4987501;28;94259;-73
2022/07/21 11:54:22;;;;;;;7.22;5.60;;;;;;;;;;4985689;28;93760;-72
2022/07/21 11:56:49;;;;;;;5.97;5.45;;;;;;;;;;4984375;28;92875;-72
2022/07/21 11:59:16;;;;;;;7.03;6.20;;;;;;;;;;4981752;28;93876;-72
2022/07/21 12:01:52;;;;;;;9.77;8.93;;;;;;;;;;4984281;28;96760;-72
2022/07/21 12:04:36;;;;;;;9.15;8.25;;;;;;;;;;4991362;28;94955;-72
2022/07/21 12:07:04;;;;;;;6.25;5.75;;;;;;;;;;4988656;28;93870;-72
2022/07/21 12:09:31;;;;;;;6.78;4.88;;;;;;;;;;4988672;28;93849;-72
2022/07/21 12:11:58;;;;;;;4.80;4.03;;;;;;;;;;4987900;28;92685;-72
2022/07/21 12:14:44;;;;;;;3.63;3.35;;;;;;;;;;4990027;28;94219;-72
2022/07/21 12:17:11;;;;;;;4.57;4.18;;;;;;;;;;4984071;28;92523;-72
2022/07/21 12:19:38;;;;;;;3.95;3.70;;;;;;;;;;4986609;28;93281;-72
2022/07/21 12:22:07;;;;;;;5.28;3.75;;;;;;;;;;4989157;28;93426;-73
2022/07/21 12:24:50;;;;;;;4.20;3.90;;;;;;;;;;4985804;28;93780;-72
2022/07/21 12:27:16;;;;;;;3.83;3.50;;;;;;;;;;4986945;27;97121;-71
2022/07/21 12:29:43;;;;;;;5.05;3.45;;;;;;;;;;4989747;28;94445;-71
2022/07/21 12:32:09;;;;;;;3.30;3.00;;;;;;;;;;4984534;28;94080;-72
2022/07/21 12:34:49;;;;;;;3.70;3.40;;;;;;;;;;4988540;28;94025;-72
2022/07/21 12:37:16;;;;;;;6.00;3.20;;;;;;;;;;4982663;28;93347;-72
2022/07/21 12:40:03;;;;;;;10.48;3.17;;;;;;;;;;4987412;28;94134;-72
2022/07/21 12:42:35;;;;;;;5.65;3.22;;;;;;;;;;4983510;28;93366;-72
2022/07/21 12:45:12;;;;;;;3.30;3.00;;;;;;;;;;4987171;28;92499;-72
2022/07/21 12:47:38;;;;;;;3.70;3.40;;;;;;;;;;4986902;28;93729;-72
2022/07/21 12:50:06;;;;;;;3.50;3.20;;;;;;;;;;4988309;28;94259;-72
2022/07/21 12:52:45;;;;;;;3.17;2.97;;;;;;;;;;4983217;28;94878;-71
2022/07/21 12:55:12;;;;;;;4.68;3.05;;;;;;;;;;4985471;28;95778;-71
2022/07/21 12:57:38;;;;;;;6.68;3.50;;;;;;;;;;4985200;28;93319;-71
2022/07/21 13:00:05;;;;;;;4.03;3.50;;;;;;;;;;4994399;28;94136;-71
2022/07/21 13:02:45;;;;;;;3.40;2.88;;;;;;;;;;4986678;28;94223;-71
2022/07/21 13:05:11;;;;;;;3.25;2.95;;;;;;;;;;4988006;28;93448;-71
2022/07/21 13:07:37;;;;;;;7.97;3.92;;;;;;;;;;4982220;28;93304;-72
2022/07/21 13:10:04;;;;;;;4.88;3.72;;;;;;;;;;4980905;28;93611;-72
2022/07/21 13:12:31;;;;;;;3.80;3.47;;;;;;;;;;4980035;28;94004;-72
2022/07/21 13:14:57;;;;;;;3.97;3.60;;;;;;;;;;4982530;28;94027;-71
2022/07/21 13:17:24;;;;;;;3.60;3.30;;;;;;;;;;4979901;28;98427;-72
2022/07/21 13:19:50;;;;;;;3.28;3.08;;;;;;;;;;4980645;28;93040;-72
2022/07/21 13:22:16;;;;;;;2.92;2.72;;;;;;;;;;4983724;28;93927;-71
2022/07/21 13:24:43;;;;;;;4.50;2.70;;;;;;;;;;4984055;28;94688;-72
2022/07/21 13:27:09;;;;;;;3.70;3.05;;;;;;;;;;4982720;28;94235;-72
2022/07/21 13:29:36;;;;;;;3.63;2.85;;;;;;;;;;4986687;28;93079;-72
2022/07/21 13:32:03;;;;;;;4.95;2.80;;;;;;;;;;4988059;28;93873;-72
2022/07/21 13:34:29;;;;;;;3.05;2.53;;;;;;;;;;4982653;28;93844;-71
2022/07/21 13:36:58;;;;;;;2.83;2.38;;;;;;;;;;4984230;28;93989;-72
2022/07/21 13:39:26;;;;;;;2.40;2.17;;;;;;;;;;4986968;28;94165;-71
2022/07/21 13:42:12;;;;;;;4.03;2.40;;;;;;;;;;4984878;28;96447;-72
2022/07/21 13:44:59;;;;;;;2.85;2.10;;;;;;;;;;4992921;28;92960;-72
2022/07/21 13:47:25;;;;;;;2.25;1.70;;;;;;;;;;4981114;28;93041;-73
2022/07/21 13:49:51;;;;;;;2.45;2.25;;;;;;;;;;4992056;28;94450;-72
2022/07/21 13:52:18;;;;;;;1.85;1.73;;;;;;;;;;4980584;28;93268;-72
2022/07/21 13:54:50;;;;;;;1.92;1.83;;;;;;;;;;4996878;28;94305;-72
2022/07/21 13:57:16;;;;;;;2.00;1.40;;;;;;;;;;4987820;28;94285;-71
2022/07/21 13:59:43;;;;;;;3.08;2.05;;;;;;;;;;4990466;28;92694;-72
2022/07/21 14:02:09;;;;;;;4.13;1.95;;;;;;;;;;4989533;27;94793;-72
2022/07/21 14:04:35;;;;;;;6.03;2.47;;;;;;;;;;4985150;28;93447;-72
2022/07/21 14:07:02;;;;;;;3.58;2.30;;;;;;;;;;4987608;28;94989;-71
2022/07/21 14:09:28;;;;;;;6.07;2.10;;;;;;;;;;4984358;28;93459;-72
2022/07/21 14:11:56;;;;;;;3.88;2.00;;;;;;;;;;4985817;28;94148;-71
2022/07/21 14:14:26;;;;;;;6.57;1.98;;;;;;;;;;4989767;28;93074;-72
2022/07/21 14:16:56;;;;;;;2.05;1.85;;;;;;;;;;4984601;28;93547;-71
2022/07/21 14:19:23;;;;;;;3.65;2.55;;;;;;;;;;4981890;28;94807;-71
2022/07/21 14:21:49;;;;;;;5.85;2.55;;;;;;;;;;4987263;28;93821;-71
2022/07/21 14:27:01;;;;;;;3.00;2.45;;;;;;;;;;4989682;27;94238;-71
2022/07/21 14:29:28;;;;;;;5.22;2.70;;;;;;;;;;4984034;28;94000;-71
2022/07/21 14:31:54;;;;;;;2.00;1.88;;;;;;;;;;4986017;28;96075;-71
2022/07/21 14:34:21;;;;;;;4.47;2.42;;;;;;;;;;4985820;28;96220;-71
2022/07/21 14:36:47;;;;;;;4.07;2.53;;;;;;;;;;4983415;28;93925;-71
2022/07/21 14:39:14;;;;;;;2.80;2.35;;;;;;;;;;4983920;28;93163;-71
2022/07/21 14:41:41;;;;;;;2.83;2.22;;;;;;;;;;4991723;28;92463;-72